Time;durP1;ratioP1;P1;durP2;ratioP2;P2;SDS_P1;SDS_P2;PMS_P1;PMS_P2;Temp;Humidity;BMP_temperature;BMP_pressure;BME280_temperature;BME280_humidity;BME280_pressure;Samples;Min_cycle;Max_cycle;Signal;HPM_P1;HPM_P2
2023/03/25 00:00:19;;;;;;;3.93;2.13;;;9.10;99.90;;;;;;5091170;28;20218;-54
2023/03/25 00:02:50;;;;;;;6.37;1.80;;;9.10;99.90;;;;;;5092194;28;20219;-55
2023/03/25 00:05:21;;;;;;;2.53;2.00;;;9.00;99.90;;;;;;5088217;28;20222;-53
2023/03/25 00:07:51;;;;;;;5.53;2.17;;;8.90;99.90;;;;;;5089869;28;20558;-55
2023/03/25 00:10:21;;;;;;;5.73;2.30;;;8.80;99.90;;;;;;5088347;28;20227;-56
2023/03/25 00:12:49;;;;;;;6.87;2.30;;;8.70;99.90;;;;;;5084709;28;20269;-54
2023/03/25 00:15:17;;;;;;;4.13;2.57;;;8.70;99.90;;;;;;5088604;28;20245;-54
2023/03/25 00:17:45;;;;;;;5.90;2.70;;;8.80;99.90;;;;;;5092096;28;20215;-56
2023/03/25 00:20:14;;;;;;;5.43;2.70;;;8.80;99.90;;;;;;5087664;28;20223;-56
2023/03/25 00:22:43;;;;;;;4.97;2.63;;;8.80;99.90;;;;;;5098773;28;20657;-54
2023/03/25 00:25:15;;;;;;;3.60;2.60;;;8.80;99.90;;;;;;5081779;28;20242;-55
2023/03/25 00:27:47;;;;;;;6.00;2.70;;;8.80;99.90;;;;;;5084062;27;20276;-54
2023/03/25 00:30:17;;;;;;;6.13;2.43;;;8.80;99.90;;;;;;5087806;28;20215;-54
2023/03/25 00:32:48;;;;;;;5.17;2.37;;;8.70;99.90;;;;;;5087076;28;20219;-54
2023/03/25 00:35:18;;;;;;;5.07;2.73;;;8.80;99.90;;;;;;5083800;28;20218;-55
2023/03/25 00:37:56;;;;;;;6.50;2.23;;;8.80;99.90;;;;;;5067979;28;20212;-56
2023/03/25 00:40:25;;;;;;;6.00;2.43;;;8.80;99.90;;;;;;5071558;28;20233;-55
2023/03/25 00:42:55;;;;;;;3.00;2.40;;;8.80;99.90;;;;;;5090367;28;20293;-55
2023/03/25 00:45:23;;;;;;;5.93;2.43;;;8.80;99.90;;;;;;5088191;28;20215;-55
2023/03/25 00:47:51;;;;;;;4.37;2.20;;;8.80;99.90;;;;;;5090553;28;20261;-55
2023/03/25 00:50:20;;;;;;;4.93;2.30;;;8.70;99.90;;;;;;5089845;28;20219;-53
2023/03/25 00:52:50;;;;;;;5.13;2.30;;;8.70;99.90;;;;;;5091689;28;20211;-56
2023/03/25 00:55:18;;;;;;;7.97;2.80;;;8.70;99.90;;;;;;5089117;28;20268;-55
2023/03/25 00:57:46;;;;;;;4.07;2.17;;;8.70;99.90;;;;;;5080860;28;20666;-56
2023/03/25 01:00:18;;;;;;;4.67;2.43;;;8.60;99.90;;;;;;5083363;28;20307;-55
2023/03/25 01:02:52;;;;;;;2.27;2.07;;;8.60;99.90;;;;;;5090533;28;20219;-54
2023/03/25 01:05:21;;;;;;;8.33;2.13;;;8.60;99.90;;;;;;5086529;28;20257;-54
2023/03/25 01:07:50;;;;;;;6.30;2.60;;;8.60;99.90;;;;;;5085752;28;20228;-55
2023/03/25 01:10:19;;;;;;;3.53;2.27;;;8.60;99.90;;;;;;5069720;28;20192;-54
2023/03/25 01:12:47;;;;;;;8.80;2.60;;;8.60;99.90;;;;;;5070920;28;20220;-54
2023/03/25 01:15:17;;;;;;;6.10;3.27;;;8.60;99.90;;;;;;5069019;28;20247;-55
2023/03/25 01:17:45;;;;;;;5.93;3.17;;;8.70;99.90;;;;;;5068640;28;20216;-55
2023/03/25 01:20:13;;;;;;;9.43;3.43;;;8.70;99.90;;;;;;5067596;28;20220;-55
2023/03/25 01:22:42;;;;;;;7.57;3.87;;;8.70;99.90;;;;;;5067750;28;20940;-55
2023/03/25 01:25:10;;;;;;;10.37;3.80;;;8.80;99.90;;;;;;5072557;28;20594;-55
2023/03/25 01:27:38;;;;;;;6.67;3.17;;;8.80;99.90;;;;;;5070211;28;20224;-53
2023/03/25 01:30:08;;;;;;;8.43;3.53;;;8.80;99.90;;;;;;5068768;28;20563;-55
2023/03/25 01:32:37;;;;;;;8.57;2.87;;;8.70;99.90;;;;;;5070139;28;20211;-55
2023/03/25 01:35:06;;;;;;;4.97;2.67;;;8.60;99.90;;;;;;5069962;28;20224;-54
2023/03/25 01:37:35;;;;;;;13.07;3.10;;;8.60;99.90;;;;;;5069776;28;20739;-55
2023/03/25 01:40:07;;;;;;;7.33;2.50;;;8.60;99.90;;;;;;5068287;28;20203;-54
2023/03/25 01:42:35;;;;;;;13.27;2.70;;;8.60;99.90;;;;;;5066999;28;20242;-54
2023/03/25 01:45:23;;;;;;;9.20;3.33;;;8.60;99.90;;;;;;5070147;28;20220;-55
2023/03/25 01:48:01;;;;;;;7.80;3.90;;;8.70;99.90;;;;;;5069103;28;20227;-55
2023/03/25 01:50:31;;;;;;;12.63;4.10;;;8.70;99.90;;;;;;5068486;28;20234;-54
2023/03/25 01:53:03;;;;;;;4.53;3.70;;;8.70;99.90;;;;;;5068286;28;20620;-54
2023/03/25 01:55:33;;;;;;;8.73;3.40;;;8.70;99.90;;;;;;5070884;28;20188;-53
2023/03/25 01:58:09;;;;;;;9.47;3.07;;;8.70;99.90;;;;;;5067807;28;20215;-53
2023/03/25 02:00:39;;;;;;;6.87;2.77;;;8.80;99.90;;;;;;5067059;28;20309;-55
2023/03/25 02:03:12;;;;;;;9.83;2.83;;;8.70;99.90;;;;;;5067319;28;20219;-55
2023/03/25 02:05:48;;;;;;;9.20;2.73;;;8.70;99.90;;;;;;5067462;28;20216;-54
2023/03/25 02:08:19;;;;;;;8.40;2.50;;;8.70;99.90;;;;;;5067267;28;20224;-53
2023/03/25 02:10:48;;;;;;;7.80;2.70;;;8.70;99.90;;;;;;5067869;28;20231;-55
2023/03/25 02:13:16;;;;;;;6.23;2.53;;;8.70;99.90;;;;;;5072426;28;20664;-55
2023/03/25 02:16:11;;;;;;;6.50;2.40;;;8.70;99.90;;;;;;5067055;28;20280;-55
2023/03/25 02:18:50;;;;;;;11.83;3.00;;;8.70;99.90;;;;;;5062582;28;20255;-56
2023/03/25 02:22:00;;;;;;;8.70;2.53;;;8.70;99.90;;;;;;5070046;28;20220;-54
2023/03/25 02:25:11;;;;;;;6.97;2.57;;;8.80;99.90;;;;;;5005443;28;20232;-56
2023/03/25 02:27:52;;;;;;;5.07;1.97;;;8.70;99.90;;;;;;5046965;28;20224;-53
2023/03/25 02:30:50;;;;;;;7.40;2.40;;;8.70;99.90;;;;;;5068678;28;20690;-55
2023/03/25 02:33:47;;;;;;;6.80;2.30;;;8.80;99.90;;;;;;5049035;28;20689;-54
2023/03/25 02:36:45;;;;;;;9.50;2.30;;;8.70;99.90;;;;;;5053671;28;20269;-55
2023/03/25 02:39:19;;;;;;;9.90;2.63;;;8.60;99.90;;;;;;5075627;28;20231;-54
2023/03/25 02:41:53;;;;;;;12.97;2.83;;;8.60;99.90;;;;;;5075296;28;20210;-53
2023/03/25 02:44:30;;;;;;;5.67;2.70;;;8.50;99.90;;;;;;5068436;28;21911;-54
2023/03/25 02:47:02;;;;;;;5.70;2.30;;;8.50;99.90;;;;;;5069538;28;20708;-56
2023/03/25 02:49:34;;;;;;;3.40;2.20;;;8.40;99.90;;;;;;5071800;28;20208;-55
2023/03/25 02:52:10;;;;;;;7.80;3.13;;;8.30;99.90;;;;;;5068180;28;20187;-54
2023/03/25 02:54:43;;;;;;;5.33;2.50;;;8.20;99.90;;;;;;5071700;28;20223;-54
2023/03/25 02:57:15;;;;;;;8.63;2.53;;;8.20;99.90;;;;;;5071575;28;20234;-55
2023/03/25 02:59:45;;;;;;;9.47;2.63;;;8.20;99.90;;;;;;5067369;28;20269;-55
2023/03/25 03:02:16;;;;;;;8.63;2.70;;;8.10;99.90;;;;;;5068384;28;20248;-54
2023/03/25 03:04:49;;;;;;;9.93;3.50;;;8.10;99.90;;;;;;5069007;28;20196;-54
2023/03/25 03:07:23;;;;;;;10.57;3.87;;;8.10;99.90;;;;;;5066525;28;20222;-55
2023/03/25 03:10:02;;;;;;;8.00;2.70;;;8.10;99.90;;;;;;5069949;28;20217;-55
2023/03/25 03:12:47;;;;;;;9.60;2.70;;;8.10;99.90;;;;;;5072288;28;20732;-55
2023/03/25 03:15:32;;;;;;;11.80;2.73;;;8.10;99.90;;;;;;5071987;28;20293;-54
2023/03/25 03:18:11;;;;;;;12.27;2.80;;;8.20;99.90;;;;;;5066246;28;20277;-54
2023/03/25 03:20:50;;;;;;;8.73;2.80;;;8.20;99.90;;;;;;5067600;28;20269;-55
2023/03/25 03:23:29;;;;;;;11.37;2.77;;;8.20;99.90;;;;;;5072399;28;20216;-55
2023/03/25 03:26:08;;;;;;;13.13;3.03;;;8.20;99.90;;;;;;5069737;28;20254;-52
2023/03/25 03:28:45;;;;;;;7.40;2.63;;;8.20;99.90;;;;;;5062269;28;20527;-55
2023/03/25 03:31:23;;;;;;;12.03;2.70;;;8.20;99.90;;;;;;5071144;28;20528;-55
2023/03/25 03:34:18;;;;;;;11.20;3.20;;;8.20;99.90;;;;;;5089903;28;20290;-55
2023/03/25 03:36:51;;;;;;;11.53;3.40;;;8.20;99.90;;;;;;5090085;28;20575;-55
2023/03/25 03:39:23;;;;;;;9.57;3.00;;;8.20;99.90;;;;;;5091272;28;20241;-55
2023/03/25 03:42:01;;;;;;;15.43;3.40;;;8.20;99.90;;;;;;5092251;28;20223;-55
2023/03/25 03:44:32;;;;;;;11.67;3.17;;;8.30;99.90;;;;;;5101925;27;20223;-55
2023/03/25 03:47:05;;;;;;;11.70;4.37;;;8.30;99.90;;;;;;5092774;28;20274;-55
2023/03/25 03:49:38;;;;;;;16.57;3.47;;;8.30;99.90;;;;;;5105789;28;20232;-55
2023/03/25 03:52:11;;;;;;;10.40;3.87;;;8.30;99.90;;;;;;5095828;28;20630;-55
2023/03/25 03:54:45;;;;;;;11.33;2.93;;;8.20;99.90;;;;;;5097539;28;20742;-55
2023/03/25 03:57:20;;;;;;;9.37;3.40;;;8.20;99.90;;;;;;5095105;28;20211;-54
2023/03/25 03:59:57;;;;;;;9.87;2.73;;;8.20;99.90;;;;;;5094095;28;20269;-55
2023/03/25 04:02:33;;;;;;;8.37;3.73;;;8.30;99.90;;;;;;5086915;28;20272;-56
2023/03/25 04:05:02;;;;;;;10.87;2.83;;;8.30;99.90;;;;;;5090513;28;20220;-50
2023/03/25 04:07:37;;;;;;;10.87;2.80;;;8.30;99.90;;;;;;5071797;28;20204;-55
2023/03/25 04:10:13;;;;;;;10.33;3.00;;;8.30;99.90;;;;;;5074090;28;20194;-54
2023/03/25 04:12:46;;;;;;;9.30;2.67;;;8.20;99.90;;;;;;5087251;28;20767;-53
2023/03/25 04:15:15;;;;;;;9.63;3.20;;;8.20;99.90;;;;;;5088428;28;20322;-52
2023/03/25 04:17:44;;;;;;;5.53;2.47;;;8.20;99.90;;;;;;5090216;28;20256;-55
2023/03/25 04:20:15;;;;;;;8.30;2.33;;;8.20;99.90;;;;;;5092604;28;20234;-54
2023/03/25 04:22:44;;;;;;;10.50;2.43;;;8.10;99.90;;;;;;5086547;28;20213;-54
2023/03/25 04:25:13;;;;;;;4.77;2.10;;;8.10;99.90;;;;;;5085500;28;20684;-54
2023/03/25 04:27:47;;;;;;;10.23;2.83;;;8.10;99.90;;;;;;5084311;27;20223;-55
2023/03/25 04:30:17;;;;;;;7.27;2.53;;;8.10;99.90;;;;;;5068122;28;20276;-54
2023/03/25 04:32:47;;;;;;;12.23;2.47;;;8.10;99.90;;;;;;5070973;28;20219;-53
2023/03/25 04:35:17;;;;;;;9.10;2.50;;;8.10;99.90;;;;;;5062388;28;20225;-55
2023/03/25 04:37:47;;;;;;;13.90;2.87;;;8.10;99.90;;;;;;5065710;28;20220;-55
2023/03/25 04:40:17;;;;;;;17.63;3.10;;;8.10;99.90;;;;;;5070144;28;20188;-54
2023/03/25 04:42:52;;;;;;;10.83;3.00;;;8.10;99.90;;;;;;5073819;28;20289;-54
2023/03/25 04:45:20;;;;;;;10.17;2.83;;;8.10;99.90;;;;;;5064955;28;20289;-56
2023/03/25 04:47:52;;;;;;;14.40;3.17;;;8.10;99.90;;;;;;5075185;28;20216;-55
2023/03/25 04:50:23;;;;;;;7.00;2.90;;;8.10;99.90;;;;;;5073860;28;20222;-55
2023/03/25 04:52:52;;;;;;;10.53;2.80;;;8.10;99.90;;;;;;5070969;28;20693;-52
2023/03/25 04:55:21;;;;;;;11.43;2.83;;;8.10;99.90;;;;;;5072157;28;20253;-52
2023/03/25 04:57:52;;;;;;;17.30;3.03;;;8.10;99.90;;;;;;5069677;28;20220;-55
2023/03/25 05:00:22;;;;;;;7.13;2.90;;;8.10;99.90;;;;;;5067047;28;20265;-55
2023/03/25 05:02:53;;;;;;;14.63;3.20;;;8.20;99.90;;;;;;5068010;28;20628;-54
2023/03/25 05:05:23;;;;;;;9.23;2.50;;;8.20;99.90;;;;;;5069476;28;20317;-54
2023/03/25 05:07:53;;;;;;;11.67;2.47;;;8.10;99.90;;;;;;5063133;28;20223;-55
2023/03/25 05:10:23;;;;;;;14.50;3.60;;;8.10;99.90;;;;;;5065485;28;20714;-55
2023/03/25 05:12:58;;;;;;;12.07;2.70;;;8.10;99.90;;;;;;5064872;28;20686;-55
2023/03/25 05:15:27;;;;;;;9.27;2.67;;;8.10;99.90;;;;;;5067173;28;20230;-53
2023/03/25 05:17:55;;;;;;;7.90;2.30;;;8.10;99.90;;;;;;5069699;28;20207;-55
2023/03/25 05:20:24;;;;;;;11.70;2.60;;;8.10;99.90;;;;;;5069249;28;20223;-55
2023/03/25 05:22:56;;;;;;;7.00;2.60;;;8.10;99.90;;;;;;5068024;28;20219;-54
2023/03/25 05:25:24;;;;;;;11.97;2.90;;;8.10;99.90;;;;;;5067480;28;20278;-56
2023/03/25 05:27:54;;;;;;;15.43;3.03;;;8.10;99.90;;;;;;5070302;28;20219;-55
2023/03/25 05:30:22;;;;;;;14.13;2.53;;;8.10;99.90;;;;;;5081157;28;20274;-55
2023/03/25 05:32:52;;;;;;;13.60;2.50;;;8.10;99.90;;;;;;5081035;28;20260;-55
2023/03/25 05:35:25;;;;;;;21.70;3.20;;;8.10;99.90;;;;;;5086109;28;20572;-55
2023/03/25 05:37:54;;;;;;;14.43;2.80;;;8.10;99.90;;;;;;5092933;28;20223;-55
2023/03/25 05:40:24;;;;;;;27.37;3.37;;;8.10;99.90;;;;;;5085650;28;20245;-55
2023/03/25 05:42:54;;;;;;;14.47;4.00;;;8.10;99.90;;;;;;5086694;28;20231;-55
2023/03/25 05:45:23;;;;;;;13.57;2.80;;;8.10;99.90;;;;;;5092312;28;20219;-54
2023/03/25 05:47:52;;;;;;;10.00;2.80;;;8.10;99.90;;;;;;5086397;28;20219;-54
2023/03/25 05:50:21;;;;;;;16.60;3.57;;;8.10;99.90;;;;;;5090191;27;20585;-55
2023/03/25 05:52:50;;;;;;;10.97;3.00;;;8.10;99.90;;;;;;5089808;27;20227;-55
2023/03/25 05:55:21;;;;;;;15.00;3.47;;;8.10;99.90;;;;;;5089861;28;20191;-54
2023/03/25 05:57:50;;;;;;;11.40;2.43;;;8.10;99.90;;;;;;5067991;28;20731;-54
2023/03/25 06:00:21;;;;;;;15.73;3.17;;;8.10;99.90;;;;;;5064791;28;20216;-54
2023/03/25 06:02:51;;;;;;;14.03;2.67;;;8.20;99.90;;;;;;5070893;28;20577;-55
2023/03/25 06:05:22;;;;;;;14.90;2.97;;;8.20;99.90;;;;;;5062470;28;20224;-54
2023/03/25 06:07:54;;;;;;;11.23;2.93;;;8.20;99.90;;;;;;5065345;28;20263;-53
2023/03/25 06:10:24;;;;;;;12.20;2.73;;;8.30;99.90;;;;;;5052648;28;20192;-52
2023/03/25 06:12:52;;;;;;;10.30;2.93;;;8.40;99.90;;;;;;5062547;28;20216;-55
2023/03/25 06:15:27;;;;;;;10.00;2.60;;;8.50;99.90;;;;;;5060609;28;20270;-55
2023/03/25 06:17:56;;;;;;;14.33;3.13;;;8.60;99.90;;;;;;5067461;28;20306;-55
2023/03/25 06:20:25;;;;;;;14.67;2.97;;;8.60;99.90;;;;;;5063958;28;20239;-54
2023/03/25 06:22:53;;;;;;;9.87;3.10;;;8.60;99.90;;;;;;5069898;28;20223;-56
2023/03/25 06:25:22;;;;;;;13.13;2.60;;;8.70;99.90;;;;;;5086065;28;21222;-55
2023/03/25 06:27:51;;;;;;;12.10;3.20;;;8.60;99.90;;;;;;5088557;28;20216;-55
2023/03/25 06:30:21;;;;;;;14.87;2.90;;;8.50;99.90;;;;;;5085737;28;20692;-54
2023/03/25 06:32:54;;;;;;;15.70;3.20;;;8.50;99.90;;;;;;5088558;28;20268;-54
2023/03/25 06:35:23;;;;;;;15.03;3.03;;;8.60;99.90;;;;;;5091574;28;20215;-54
2023/03/25 06:37:51;;;;;;;18.67;3.37;;;8.70;99.90;;;;;;5094195;28;20728;-55
2023/03/25 06:40:21;;;;;;;15.63;4.33;;;8.80;99.90;;;;;;5084996;28;20588;-56
2023/03/25 06:42:49;;;;;;;17.23;3.03;;;8.90;99.90;;;;;;5082658;28;20732;-56
2023/03/25 06:45:17;;;;;;;16.10;3.20;;;9.00;99.90;;;;;;5079678;28;20307;-54
2023/03/25 06:47:45;;;;;;;22.83;3.13;;;9.10;99.90;;;;;;5081782;28;20219;-55
2023/03/25 06:50:15;;;;;;;15.83;3.20;;;9.10;99.90;;;;;;5083882;28;20681;-55
2023/03/25 06:52:43;;;;;;;21.63;3.57;;;9.20;99.90;;;;;;5083659;28;20849;-55
2023/03/25 06:55:12;;;;;;;22.07;3.53;;;9.20;99.90;;;;;;5079199;28;20237;-56
2023/03/25 06:57:40;;;;;;;24.50;3.77;;;9.20;99.90;;;;;;5082394;28;20207;-55
2023/03/25 07:00:11;;;;;;;20.37;3.77;;;9.30;99.90;;;;;;5088389;28;20570;-56
2023/03/25 07:02:39;;;;;;;22.10;3.53;;;9.30;99.90;;;;;;5089426;28;20216;-54
2023/03/25 07:05:08;;;;;;;25.37;3.80;;;9.40;99.90;;;;;;5079729;28;20218;-55
2023/03/25 07:07:38;;;;;;;18.80;3.90;;;9.40;99.90;;;;;;5083976;28;20198;-55
2023/03/25 07:10:07;;;;;;;23.53;4.10;;;9.50;99.90;;;;;;5084974;28;20200;-55
2023/03/25 07:12:35;;;;;;;22.27;3.73;;;9.50;99.90;;;;;;5084875;28;20219;-54
2023/03/25 07:15:04;;;;;;;22.93;3.83;;;9.50;99.90;;;;;;5091976;28;20272;-55
2023/03/25 07:17:32;;;;;;;23.10;3.63;;;9.50;99.90;;;;;;5092274;28;20223;-56
2023/03/25 07:20:00;;;;;;;18.10;3.43;;;9.50;99.90;;;;;;5091779;28;20306;-55
2023/03/25 07:22:29;;;;;;;22.73;3.70;;;9.50;99.90;;;;;;5088934;28;20707;-54
2023/03/25 07:24:58;;;;;;;19.73;3.33;;;9.50;99.90;;;;;;5090264;28;20568;-56
2023/03/25 07:27:27;;;;;;;28.70;4.33;;;9.60;99.90;;;;;;5091593;28;20222;-56
2023/03/25 07:29:55;;;;;;;27.83;3.73;;;9.60;99.90;;;;;;5083129;28;20637;-55
2023/03/25 07:32:24;;;;;;;17.07;3.30;;;9.60;99.90;;;;;;5087673;28;20219;-56
2023/03/25 07:34:52;;;;;;;17.60;3.37;;;9.60;99.90;;;;;;5090143;28;20219;-55
2023/03/25 07:37:20;;;;;;;22.50;3.83;;;9.60;99.90;;;;;;5089816;28;20211;-55
2023/03/25 07:39:48;;;;;;;16.10;3.57;;;9.60;99.90;;;;;;5080637;28;20739;-55
2023/03/25 07:42:18;;;;;;;26.40;3.80;;;9.60;99.90;;;;;;5086649;28;20265;-54
2023/03/25 07:44:46;;;;;;;30.67;4.07;;;9.70;99.90;;;;;;5079586;28;20293;-54
2023/03/25 07:47:14;;;;;;;21.20;3.97;;;9.70;99.90;;;;;;5071270;28;20226;-56
2023/03/25 07:49:43;;;;;;;23.87;3.97;;;9.70;99.90;;;;;;5065675;28;20587;-55
2023/03/25 07:52:11;;;;;;;25.87;3.83;;;9.80;99.90;;;;;;5065061;28;20195;-52
2023/03/25 07:54:39;;;;;;;22.83;3.80;;;9.90;99.90;;;;;;5062294;28;20273;-54
2023/03/25 07:57:08;;;;;;;21.43;4.47;;;10.00;99.90;;;;;;5066587;28;20247;-55
2023/03/25 07:59:37;;;;;;;18.60;4.20;;;10.00;99.90;;;;;;5065359;28;20807;-54
2023/03/25 08:02:06;;;;;;;20.40;3.67;;;10.10;99.90;;;;;;5065690;28;20216;-55
2023/03/25 08:04:35;;;;;;;20.17;3.90;;;10.20;99.90;;;;;;5066295;28;20279;-55
2023/03/25 08:07:03;;;;;;;17.83;3.93;;;10.30;99.90;;;;;;5073621;28;20192;-56
2023/03/25 08:09:31;;;;;;;17.90;3.47;;;10.40;99.90;;;;;;5071981;28;20216;-54
2023/03/25 08:11:59;;;;;;;28.17;4.33;;;10.50;99.90;;;;;;5071594;28;20228;-55
2023/03/25 08:14:28;;;;;;;22.03;3.77;;;10.70;99.90;;;;;;5071949;28;20224;-56
2023/03/25 08:16:57;;;;;;;16.17;3.40;;;10.80;99.90;;;;;;5073200;28;20216;-55
2023/03/25 08:19:26;;;;;;;20.27;3.40;;;10.80;99.90;;;;;;5072726;28;20224;-55
2023/03/25 08:21:54;;;;;;;24.77;4.50;;;10.90;99.90;;;;;;5070419;28;20273;-56
2023/03/25 08:24:25;;;;;;;20.00;3.77;;;10.80;99.90;;;;;;5077024;28;20268;-56
2023/03/25 08:26:54;;;;;;;21.37;3.70;;;10.80;99.90;;;;;;5090753;28;20211;-56
2023/03/25 08:29:23;;;;;;;25.00;3.50;;;10.90;99.90;;;;;;5079955;28;20753;-55
2023/03/25 08:31:51;;;;;;;18.60;3.67;;;10.90;99.90;;;;;;5066986;28;20869;-53
2023/03/25 08:34:22;;;;;;;20.90;4.23;;;11.00;99.90;;;;;;5071462;28;20254;-56
2023/03/25 08:36:57;;;;;;;17.17;3.53;;;11.10;99.90;;;;;;5064926;28;20721;-56
2023/03/25 08:39:28;;;;;;;23.00;3.63;;;11.00;99.90;;;;;;5073905;28;20219;-56
2023/03/25 08:41:57;;;;;;;17.23;4.37;;;11.10;99.90;;;;;;5072025;28;20273;-56
2023/03/25 08:44:26;;;;;;;20.17;3.67;;;11.00;99.90;;;;;;5065721;28;20306;-56
2023/03/25 08:46:54;;;;;;;21.07;3.80;;;11.00;99.90;;;;;;5076655;28;20223;-56
2023/03/25 08:49:24;;;;;;;26.30;4.47;;;11.10;99.90;;;;;;5068199;28;20208;-56
2023/03/25 08:51:52;;;;;;;17.77;3.93;;;11.20;99.90;;;;;;5095662;28;20262;-56
2023/03/25 08:54:20;;;;;;;24.33;4.30;;;11.30;99.90;;;;;;5064772;28;20224;-56
2023/03/25 08:56:48;;;;;;;21.03;4.13;;;11.30;99.90;;;;;;5069213;28;20577;-56
2023/03/25 08:59:17;;;;;;;17.23;3.90;;;11.30;99.90;;;;;;5065692;28;20219;-56
2023/03/25 09:01:45;;;;;;;23.03;4.07;;;11.30;99.90;;;;;;5068215;28;20192;-56
2023/03/25 09:04:14;;;;;;;12.47;3.43;;;11.40;99.90;;;;;;5070030;28;20191;-56
2023/03/25 09:06:43;;;;;;;19.47;3.97;;;11.30;99.90;;;;;;5066785;28;20246;-56
2023/03/25 09:09:15;;;;;;;18.90;3.87;;;11.40;99.90;;;;;;5072577;28;20302;-56
2023/03/25 09:11:44;;;;;;;20.10;3.50;;;11.60;99.90;;;;;;5071909;28;20220;-57
2023/03/25 09:14:12;;;;;;;14.60;3.40;;;11.80;99.90;;;;;;5078715;28;20216;-57
2023/03/25 09:16:40;;;;;;;16.93;3.73;;;12.30;99.90;;;;;;5069318;28;20192;-56
2023/03/25 09:19:10;;;;;;;20.27;3.90;;;12.40;99.90;;;;;;5060977;28;20217;-56
2023/03/25 09:21:38;;;;;;;16.83;4.20;;;12.60;99.90;;;;;;5067815;28;20277;-57
2023/03/25 09:24:11;;;;;;;22.73;4.33;;;12.30;99.90;;;;;;5076647;28;20227;-56
2023/03/25 09:26:40;;;;;;;13.70;3.03;;;12.10;99.90;;;;;;5066778;28;20641;-56
2023/03/25 09:29:08;;;;;;;18.40;3.80;;;11.80;99.90;;;;;;5070476;28;20223;-54
2023/03/25 09:31:36;;;;;;;18.60;3.60;;;11.80;99.90;;;;;;5064414;28;20200;-57
2023/03/25 09:34:05;;;;;;;18.53;3.73;;;12.00;99.90;;;;;;5065897;28;20254;-55
2023/03/25 09:36:33;;;;;;;25.20;5.07;;;12.20;99.90;;;;;;5100633;28;20216;-56
2023/03/25 09:39:02;;;;;;;18.33;4.23;;;12.80;99.90;;;;;;5086650;28;20232;-56
2023/03/25 09:41:46;;;;;;;25.00;3.37;;;13.20;99.90;;;;;;5089820;28;20235;-56
2023/03/25 09:44:22;;;;;;;18.30;3.90;;;13.40;99.90;;;;;;5090631;28;20215;-57
2023/03/25 09:46:50;;;;;;;20.00;3.13;;;14.30;99.90;;;;;;5087215;28;20626;-57
2023/03/25 09:49:22;;;;;;;22.30;4.53;;;15.20;99.90;;;;;;5085000;28;20250;-57
2023/03/25 09:51:52;;;;;;;15.27;3.93;;;14.80;99.90;;;;;;5086741;28;20218;-56
2023/03/25 09:54:25;;;;;;;15.57;3.43;;;14.30;99.90;;;;;;5083005;28;20220;-57
2023/03/25 09:56:59;;;;;;;15.50;3.47;;;13.70;99.90;;;;;;5082361;28;20219;-56
2023/03/25 09:59:39;;;;;;;16.20;3.47;;;13.00;99.90;;;;;;5089510;28;20223;-54
2023/03/25 10:02:23;;;;;;;16.87;4.20;;;12.50;99.90;;;;;;5122667;28;20227;-57
2023/03/25 10:05:03;;;;;;;17.73;3.60;;;13.00;99.90;;;;;;5089435;28;20250;-56
2023/03/25 10:07:44;;;;;;;18.93;3.90;;;13.30;99.90;;;;;;5084009;28;20187;-58
2023/03/25 10:10:20;;;;;;;26.73;4.13;;;13.00;99.90;;;;;;5086973;28;20199;-57
2023/03/25 10:12:58;;;;;;;17.93;3.80;;;12.60;99.90;;;;;;5088198;28;20690;-56
2023/03/25 10:15:32;;;;;;;18.30;4.07;;;12.30;99.90;;;;;;5085285;28;20619;-57
2023/03/25 10:18:17;;;;;;;20.50;4.03;;;12.20;99.90;;;;;;5090174;28;20707;-56
2023/03/25 10:20:53;;;;;;;19.30;3.60;;;12.10;99.90;;;;;;5097546;28;20210;-56
2023/03/25 10:23:30;;;;;;;16.20;3.60;;;12.60;99.90;;;;;;5079474;28;20221;-58
2023/03/25 10:26:03;;;;;;;17.50;3.30;;;13.80;99.90;;;;;;5090255;28;20697;-57
2023/03/25 10:28:42;;;;;;;19.33;3.40;;;14.80;99.90;;;;;;5089574;28;20210;-58
2023/03/25 10:31:16;;;;;;;10.43;3.07;;;14.90;99.90;;;;;;5088445;28;20202;-57
2023/03/25 10:33:51;;;;;;;11.30;3.30;;;13.90;99.90;;;;;;5092828;28;21142;-57
2023/03/25 10:36:26;;;;;;;19.53;3.53;;;13.00;99.90;;;;;;5094911;28;20214;-56
2023/03/25 10:38:55;;;;;;;20.30;3.60;;;12.60;99.90;;;;;;5083797;28;20250;-57
2023/03/25 10:41:26;;;;;;;16.80;3.50;;;12.20;99.90;;;;;;5080384;28;20232;-56
2023/03/25 10:43:56;;;;;;;11.60;3.20;;;11.80;99.90;;;;;;5090927;28;20732;-57
2023/03/25 10:46:29;;;;;;;19.63;4.13;;;11.60;99.90;;;;;;5100864;28;20190;-57
2023/03/25 10:48:57;;;;;;;19.43;3.50;;;11.30;99.90;;;;;;5073224;28;20276;-57
2023/03/25 10:51:28;;;;;;;20.80;3.23;;;11.20;99.90;;;;;;5082969;28;20311;-57
2023/03/25 10:53:58;;;;;;;16.90;3.67;;;11.20;99.90;;;;;;5092307;28;20218;-57
2023/03/25 10:56:31;;;;;;;22.03;3.37;;;11.20;99.90;;;;;;5091766;28;20292;-56
2023/03/25 10:59:06;;;;;;;15.13;4.07;;;11.10;99.90;;;;;;5091199;28;20338;-56
2023/03/25 11:01:38;;;;;;;19.50;3.70;;;11.10;99.90;;;;;;5086617;28;20195;-57
2023/03/25 11:04:09;;;;;;;17.67;3.53;;;11.00;99.90;;;;;;5092570;28;20621;-56
2023/03/25 11:06:39;;;;;;;18.07;3.47;;;10.80;99.90;;;;;;5091245;28;20237;-56
2023/03/25 11:09:23;;;;;;;15.87;3.20;;;10.60;99.90;;;;;;5092772;28;20227;-56
2023/03/25 11:11:52;;;;;;;15.63;3.07;;;10.40;99.90;;;;;;5091500;27;20225;-56
2023/03/25 11:14:26;;;;;;;13.80;3.00;;;10.40;99.90;;;;;;5099819;27;20282;-57
2023/03/25 11:16:56;;;;;;;16.43;3.03;;;10.40;99.90;;;;;;5087592;28;20219;-57
2023/03/25 11:19:28;;;;;;;17.03;3.00;;;10.80;99.90;;;;;;5095324;28;20268;-56
2023/03/25 11:22:01;;;;;;;10.73;2.67;;;12.10;99.90;;;;;;5075930;28;20196;-57
2023/03/25 11:24:33;;;;;;;14.63;2.97;;;13.10;99.90;;;;;;5066976;27;20215;-57
2023/03/25 11:27:02;;;;;;;17.23;2.87;;;13.40;99.90;;;;;;5065293;28;20220;-58
2023/03/25 11:29:33;;;;;;;13.37;3.00;;;13.20;99.90;;;;;;5071895;28;20227;-57
2023/03/25 11:32:07;;;;;;;13.07;3.23;;;13.20;99.90;;;;;;5067871;28;20647;-57
2023/03/25 11:34:40;;;;;;;10.47;2.03;;;13.90;99.90;;;;;;5067226;28;20617;-57
2023/03/25 11:37:17;;;;;;;8.57;2.17;;;14.70;99.90;;;;;;5064574;28;20223;-57
2023/03/25 11:39:49;;;;;;;9.00;2.87;;;15.50;99.90;;;;;;5060931;28;20326;-57
2023/03/25 11:42:31;;;;;;;8.00;2.27;;;15.60;99.90;;;;;;5059381;28;20212;-57
2023/03/25 11:45:02;;;;;;;6.37;2.23;;;15.90;99.90;;;;;;5065619;28;20271;-57
2023/03/25 11:47:33;;;;;;;10.83;3.10;;;16.00;99.90;;;;;;5069107;28;20226;-57
2023/03/25 11:50:04;;;;;;;10.47;2.50;;;16.00;99.90;;;;;;5066009;28;20222;-56
2023/03/25 11:52:39;;;;;;;9.77;3.00;;;15.70;99.90;;;;;;5067805;28;20196;-57
2023/03/25 11:55:17;;;;;;;8.03;2.50;;;16.00;99.90;;;;;;5065901;28;20203;-57
2023/03/25 11:57:47;;;;;;;8.93;2.50;;;15.90;99.90;;;;;;5064295;28;20219;-58
2023/03/25 12:00:36;;;;;;;10.13;2.40;;;16.10;99.90;;;;;;5069229;28;20216;-56
2023/03/25 12:03:07;;;;;;;14.53;3.03;;;16.00;99.90;;;;;;5066012;28;20219;-58
2023/03/25 12:05:35;;;;;;;10.80;2.97;;;16.00;99.90;;;;;;5102832;27;20769;-57
2023/03/25 12:08:14;;;;;;;9.83;2.70;;;15.80;99.90;;;;;;5067587;28;20277;-57
2023/03/25 12:10:53;;;;;;;11.07;2.83;;;15.70;99.90;;;;;;5066373;28;20253;-57
2023/03/25 12:13:32;;;;;;;11.37;3.10;;;15.60;99.90;;;;;;5072785;28;20635;-57
2023/03/25 12:16:13;;;;;;;15.77;3.03;;;15.80;99.90;;;;;;5070215;28;20614;-57
2023/03/25 12:18:54;;;;;;;11.90;3.07;;;15.80;99.90;;;;;;5084264;28;20227;-57
2023/03/25 12:21:35;;;;;;;14.23;2.43;;;16.10;99.90;;;;;;5083132;28;20604;-57
2023/03/25 12:24:17;;;;;;;15.60;2.93;;;16.20;99.90;;;;;;5088476;28;20561;-56
2023/03/25 12:26:58;;;;;;;14.57;3.50;;;16.20;99.90;;;;;;5090266;28;20611;-57
2023/03/25 12:29:36;;;;;;;10.07;2.63;;;16.80;99.90;;;;;;5090147;28;20249;-56
2023/03/25 12:32:20;;;;;;;14.47;3.00;;;17.10;99.90;;;;;;5086886;28;20227;-56
2023/03/25 12:34:59;;;;;;;17.07;3.43;;;17.10;99.90;;;;;;5083672;28;20223;-57
2023/03/25 12:37:35;;;;;;;12.40;3.00;;;17.00;99.90;;;;;;5089701;28;20218;-57
2023/03/25 12:40:28;;;;;;;17.83;3.30;;;16.80;99.90;;;;;;5088489;28;20269;-57
2023/03/25 12:43:03;;;;;;;11.63;2.50;;;16.30;99.90;;;;;;5085817;28;20566;-56
2023/03/25 12:45:42;;;;;;;13.50;2.90;;;16.20;99.90;;;;;;5090560;28;20215;-57
2023/03/25 12:48:23;;;;;;;12.00;2.67;;;16.60;99.90;;;;;;5069943;28;20215;-56
2023/03/25 12:51:00;;;;;;;16.07;3.40;;;16.70;99.90;;;;;;5065196;28;20265;-56
2023/03/25 12:53:42;;;;;;;14.10;3.07;;;16.70;99.90;;;;;;5065343;28;20232;-57
2023/03/25 12:56:22;;;;;;;12.07;3.03;;;16.30;99.90;;;;;;5065939;28;20687;-56
2023/03/25 12:59:23;;;;;;;14.43;2.90;;;16.00;99.90;;;;;;5068969;28;20268;-57
2023/03/25 13:02:03;;;;;;;18.10;3.20;;;15.50;99.90;;;;;;5066726;28;20232;-57
2023/03/25 13:04:47;;;;;;;13.87;3.10;;;15.00;99.90;;;;;;5086368;28;20195;-57
2023/03/25 13:07:36;;;;;;;17.80;3.60;;;14.90;99.90;;;;;;5082905;28;20232;-56
2023/03/25 13:10:13;;;;;;;14.97;3.60;;;14.60;99.90;;;;;;5071293;28;21146;-56
2023/03/25 13:12:49;;;;;;;12.67;2.97;;;14.50;99.90;;;;;;5082470;28;20218;-56